Ne plus se rappeler de moi
Bonjour et Bienvenue
Pas de session ouverte
Mardi 03/05/2016
d:\inetpub\wwwroot\acrroussillon\reservation\ACR\IMAGES\IMG1.JPGd:\inetpub\wwwroot\acrroussillon\reservation\ACR\IMAGES\IMG2.JPGd:\inetpub\wwwroot\acrroussillon\reservation\ACR/IMAGES/IMG3.jpg
00:00:00
Horaires du 03/05/2016 (Données à titre indicatif seulement).
Lever du soleil : 06h39 - Coucher du soleil : 20h51 (Heure Locale)
Jour aéronautique : 06h09 - Nuit aéronautique : 21h21 (Heure Locale)
Planning des réservations des aéronefs
Planning des réservations des aéronefs
2016/05/03 14:00
LFMP 031400Z AUTO 35019KT 320V020 CAVOK 21/05 Q1022 TEMPO 32020G30KT
Planning des réservations des aéronefs
2016/05/03 15:21
TAF LFMP 031400Z 0315/0415 32016KT 9999 SCT060
TEMPO 0315/0318 33020G33KT
BECMG 0403/0405 VRB02KT
Informations sur les aéronefs
Informations sur les aéronefs
Modifications des Types de vols
ATTENTION PLUS DE PAIEMENT EN LIGNE DEPUIS LA MAISON
AEROCLUB DU ROUSSILLON. AVENUE MAURICE BELLONTE. 66000 PERPIGNAN. Tel : 04.68.73.48.18 Fax : 09.55.16.18.97 Courriel : aeroclub-roussillon@hotmail.fr
 METAR / TAF
LIENS UTILES
envoyer un e-mail
d:\inetpub\wwwroot\acrroussillon\reservation\ACR/IMAGES/Logo.jpg
Identifiez vous pour interaction
d:\inetpub\wwwroot\acrroussillon\reservation\ACR/IMAGES/Logo.jpg
Aéro-Club du Roussillon